x

New Dungeness - 17 Nm Ne Of Port Angeles, Wa (46088) Wave Buoy

2:50pm - Sat 27th Aug 2016 All times are PDT. -7 hours from GMT.

  • Sig Wave height 1.6ft
  • Swell Direction
  • Peak Period 3s
  • Average Period 4s
  • Wind
    13mph, 16mph gusts
  • Sea Temp 54°f
  • Air Temp 59°f
  • Sea Pressure 1010.7mb
  • New Dungeness - 17 Nm Ne Of Port Angeles, Wa
  • New Dungeness - 17 Nm Ne Of Port Angeles, Wa

More Historic Weather Station data

Upgrade to MSW Pro to gain access to the past 30 days of data for over 8000 Wavebouys and Weather Stations around the globe.

Join Pro

Comparision Forecast

View Surf forecast
   
Sat 08/27 2:50pm 1.6ft 3s 4s 13 16 mph 1010.7mb 54f 59f
2:20pm 1.3ft 3s 3s 16 18 mph 1010.5mb 54f 59f
1:50pm 1.6ft 3s 3s 16 18 mph 1010.4mb 54f 59f
1:20pm 2ft 4s 3s 16 18 mph 1010.1mb 54f 58f
12:50pm 2.5ft 4s 4s 18 22 mph 1009.7mb 54f 58f
12:20pm 2.5ft 4s 4s 18 22 mph 1009.5mb 54f 59f
11:50am 3.5ft 4s 4s 18 29 mph 1008.9mb 54f 62f
11:20am 3.5ft 5s 4s 16 27 mph 1009mb 54f 61f
10:50am 4.5ft 5s 4s 16 22 mph 1008.7mb 54f 59f
10:20am 5ft 6s 5s 22 27 mph 1008.1mb 53f 59f
9:50am 5ft 6s 5s 25 29 mph 1007.8mb 54f 59f
9:20am 4.5ft 6s 5s 22 29 mph 1007.7mb 54f 59f
8:50am 4ft 5s 4s 25 29 mph 1007.3mb 54f 58f
8:20am 3ft 5s 4s 27 31 mph 1006.8mb 54f 59f
7:50am 2.5ft 5s 4s 13 22 mph 1007.6mb 53f 60f
7:20am 2.5ft 5s 4s 13 16 mph 1007.5mb 53f 56f
6:50am 2.5ft 5s 4s 18 22 mph 1007.2mb 53f 56f
6:20am 1.6ft 5s 5s 18 25 mph 1006.6mb 54f 58f
5:50am 1.6ft 5s 4s 11 13 mph 1006.9mb 54f 56f
5:20am 1.6ft 5s 4s 16 18 mph 1006.6mb 54f 56f
4:50am 1.6ft 5s 4s 16 20 mph 1006.6mb 54f 56f
4:20am 1.6ft 5s 4s 16 18 mph 1006.8mb 53f 56f
3:50am 1.6ft 5s 4s 18 22 mph 1006.4mb 53f 56f
3:20am 1.3ft 4s 4s 16 18 mph 1006.4mb 53f 56f
2:50am 1.6ft 4s 4s 18
mph
1006.3mb 53f 56f
1:50am 1.3ft 3s 3s 18 20 mph 1006.6mb 53f 55f
1:20am 1.3ft 3s 3s 13 16 mph 1006.9mb 54f 56f
12:50am 1.3ft 3s 3s 16 18 mph 1006.9mb 54f 56f
12:20am 1.3ft 3s 3s 16 18 mph 1006.9mb 54f 56f
Fri 08/26 11:50pm 1.3ft 3s 3s 16
mph
1007mb 54f 56f
11:20pm 2ft 4s 3s 13 16 mph 1007mb 54f 57f
10:50pm 2ft 4s 3s 16 18 mph 1007.2mb 54f 58f
10:20pm 2ft 3s 3s 11 13 mph 1007.6mb 54f 58f
9:50pm 2ft 3s 3s 16 18 mph 1007.5mb 54f 58f
9:20pm 2ft 3s 3s 16 18 mph 1007.7mb 54f 58f
8:50pm 1.3ft 3s 3s 16 18 mph 1007.4mb 54f 58f
8:20pm 1ft 7s 3s 18 20 mph 1007.3mb 54f 58f
7:50pm 0.7ft  -  3s 16 18 mph 1007.5mb 54f 60f
7:20pm 0.3ft  -  4s 13 18 mph 1007.9mb 54f 62f
6:50pm 0.7ft  -  5s 11
mph
1008.3mb 55f 61f
6:20pm 0.7ft  -  4s 9 11 mph 1008.7mb 56f 61f
5:50pm 0.7ft  -  4s 7 9 mph 1009mb 55f 60f
5:20pm 0.7ft  -  4s 7 9 mph 1009.3mb 56f 61f
4:50pm 0.7ft  -  4s 4
mph
1009.5mb 56f 64f
4:20pm 0.7ft  -  4s 4
mph
1009.9mb 56f 63f
3:50pm 0.7ft  -  4s 2 4 mph 1010.3mb 57f 62f
3:20pm 0.7ft  -  5s 4
mph
1010.7mb 57f 63f
2:50pm 1ft 9s 5s  -  2 mph 1011mb 57f 64f
2:20pm 0.7ft  -  5s 2 4 mph 1011.4mb 56f 63f
1:50pm 0.7ft  -  4s 4
mph
1011.5mb 57f 62f
1:20pm 0.7ft  -  4s 4
mph
1011.7mb 56f 62f
12:50pm 0.7ft  -  4s 2
mph
1012.1mb 57f 62f
12:20pm 0.7ft  -  4s 2
mph
1012.4mb 56f 64f
11:50am 0.7ft  -  5s 2
mph
1012.4mb 56f 62f
11:20am 0.7ft  -  4s  -  2 mph 1012.7mb 55f 61f
10:50am 1ft 6s 5s 2
mph
1013mb 55f 59f
10:20am 1.3ft 7s 5s  -  mph 1013.3mb 56f 60f
9:50am 1.6ft 8s 6s  -  2 mph 1013.3mb 55f 59f
9:20am 1.6ft 8s 7s 2
mph
1013.6mb 55f 59f
8:50am 1.6ft 7s 7s 4
mph
1013.7mb 55f 61f
8:20am 1.6ft 8s 7s 4
mph
1013.8mb 55f 62f
7:50am 2ft 8s 7s 2 4 mph 1013.8mb 55f 60f
7:20am 1.6ft 9s 8s 2 4 mph 1013.7mb 54f 58f
6:50am 1.3ft 10s 7s 4 7 mph 1013.6mb 53f 61f
6:20am 1.3ft 9s 8s 4 7 mph 1013.7mb 53f 56f
5:50am 1ft 9s 6s 7 9 mph 1013.6mb 53f 56f
5:20am 1ft 10s 7s 7
mph
1013.5mb 53f 55f
4:50am 0.7ft  -  6s 2 4 mph 1013.5mb 53f 57f
4:20am 0.7ft  -  4s 2
mph
1013.4mb 53f 56f
3:50am 0.7ft  -  4s 2 4 mph 1013.5mb 53f 56f
3:20am 0.7ft  -  4s 7
mph
1013.4mb 54f 56f
2:50am 0.7ft  -  5s 4
mph
1013.6mb 53f 55f
2:20am 0.7ft  -  4s 2 4 mph 1013.7mb 53f 56f
1:50am 0.7ft  -  3s 4 7 mph 1013.7mb 54f 57f
1:20am 0.7ft  -  4s 7
mph
1013.8mb 53f 57f
12:50am 1ft 3s 3s 9 11 mph 1013.7mb 53f 58f
12:20am 1ft 3s 3s 11
mph
1013.5mb 53f 58f
Thu 08/25 11:50pm 0.7ft  -  3s 11 13 mph 1013.5mb 53f 59f
11:20pm 0.7ft  -  3s 11 13 mph 1013.6mb 53f 58f
10:50pm 0.3ft  -  4s 11
mph
1013.5mb 53f 57f
10:20pm 0.3ft  -  4s 9 11 mph 1013.6mb 54f 58f
9:50pm 0.3ft  -  4s 9
mph
1013.7mb 54f 58f
9:20pm 0.3ft  -  4s 9
mph
1013.8mb 54f 65f
8:50pm 0.3ft  -  4s 9
mph
1013.8mb 55f 67f
8:20pm 0.3ft  -  4s 9
mph
1013.7mb 55f 63f
7:50pm 0.3ft  -  5s 7 9 mph 1013.8mb 54f 63f
7:20pm 0.3ft  -  4s 7 9 mph 1013.9mb 54f 62f
6:50pm 0.3ft  -  4s 7 9 mph 1014.1mb 55f 63f
6:20pm 0.3ft  -  4s 4 7 mph 1014.4mb 56f 65f
5:50pm 0.7ft  -  5s 4
mph
1014.8mb 56f 64f
5:20pm 0.3ft  -  4s 9
mph
1015mb 58f 63f
4:50pm 0.7ft  -  4s 7
mph
1015.4mb 58f 70f
4:20pm 0.7ft  -  4s 4
mph
1015.7mb 57f 70f
3:50pm 0.3ft  -  4s 2
mph
1016.1mb 56f 71f
3:20pm 0.7ft  -  4s 4
mph
1016.5mb 55f 71f
2:50pm 0.7ft  -  4s 4
mph
1017mb 56f 69f
2:20pm 0.7ft  -  4s 2 4 mph 1017.5mb 57f 69f
1:50pm 0.7ft  -  4s 2 4 mph 1017.8mb 58f 67f
1:20pm 0.7ft  -  4s 2
mph
1018.1mb 59f 67f
12:50pm 0.7ft  -  4s 2
mph
1018.4mb 56f 65f
12:20pm 0.7ft  -  4s 4
mph
1018.7mb 56f 64f
11:50am 0.7ft  -  4s 4
mph
1019.1mb 56f 63f
11:20am 0.7ft  -  4s 4
mph
1019.2mb 56f 66f
10:50am 0.7ft  -  4s 7
mph
1019.5mb 55f 62f
10:20am 0.7ft  -  5s 2
mph
1019.8mb 55f 61f
9:50am 0.7ft  -  4s  -  mph 1020mb 55f 60f
9:20am 1ft 6s 5s 2
mph
1020.2mb 55f 58f
8:50am 1ft 6s 5s 4
mph
1020.1mb 54f 59f
8:20am 1ft 7s 6s 2 4 mph 1020.2mb 54f 60f
7:50am 1ft 7s 6s 2
mph
1020.2mb 54f 62f
7:20am 1ft 7s 6s 2
mph
1020.4mb 54f 58f
6:50am 1ft 7s 6s 2 4 mph 1020.3mb 54f 57f
6:20am 1ft 7s 6s 2
mph
1020.1mb 53f 56f
5:50am 0.7ft  -  5s  -  2 mph 1019.9mb 54f 57f
5:20am 0.7ft  -  6s 4
mph
1019.9mb 53f 57f
4:50am 0.7ft  -  5s 4
mph
1019.8mb 53f 60f
4:20am 0.7ft  -  5s 4 7 mph 1019.9mb 53f 60f
3:50am 0.3ft  -  4s 2 4 mph 1020mb 53f 59f
3:20am 0.3ft  -  5s 2 4 mph 1019.9mb 53f 58f
2:50am 0.3ft  -  4s 2
mph
1019.9mb 53f 57f
2:20am 0.3ft  -  4s 2 4 mph 1019.8mb 52f 57f
1:50am 0.7ft  -  4s 4
mph
1019.8mb 53f 57f
1:20am 0.7ft  -  4s 7 9 mph 1019.7mb 53f 57f
12:50am 0.7ft  -  4s 7 9 mph 1019.7mb 53f 57f
12:20am 0.7ft  -  3s 7 9 mph 1019.8mb 53f 56f
Wed 08/24 11:50pm 0.7ft  -  3s 7 9 mph 1019.6mb 53f 57f
11:20pm 0.7ft  -  3s 7 11 mph 1019.5mb 53f 57f
10:50pm 0.7ft  -  3s 7 9 mph 1019.5mb 53f 57f
10:20pm 0.3ft  -  4s 11
mph
1019.5mb 53f 56f
9:50pm 0.3ft  -  4s 11
mph
1019.6mb 53f 57f
9:20pm 0.3ft  -  4s 7 9 mph 1019.6mb 53f 57f
8:20pm 0.3ft  -  3s 7
mph
1019.5mb 54f 60f
7:50pm 0.3ft  -  4s 7 9 mph 1019.6mb 54f 61f
7:20pm 0.3ft  -  4s 2 4 mph 1019.6mb 54f 66f
6:50pm 0.3ft  -  4s 4
mph
1019.7mb 55f 67f
6:20pm 0.7ft  -  4s 4 7 mph 1019.9mb 54f 64f
5:50pm 0.3ft  -  4s 4 7 mph 1020.1mb 54f 68f
5:20pm 0.3ft  -  3s 4 7 mph 1020.4mb 56f 71f
4:50pm 0.3ft  -  4s 7 9 mph 1020.7mb 56f 66f
4:20pm 0.3ft  -  5s 9 11 mph 1021mb 56f 66f
3:50pm 0.3ft  -  5s 9
mph
1021.3mb 56f 63f
3:20pm 0.7ft  -  5s 9
mph
1021.6mb 55f 65f
2:50pm 0.7ft  -  4s 9
mph
1021.9mb 55f 64f
2:20pm 0.7ft  -  4s 4
mph
1022.3mb 55f 65f
1:50pm 0.7ft  -  4s 7
mph
1022.4mb 55f 65f
1:20pm 0.7ft  -  5s 4 7 mph 1022.9mb 55f 65f
12:50pm 0.7ft  -  5s 2 4 mph 1023.1mb 54f 65f
12:20pm 0.3ft  -  4s 4
mph
1023.2mb 54f 62f
11:50am 0.7ft  -  4s 4 7 mph 1023.4mb 55f 61f
11:20am 0.7ft  -  4s 4 7 mph 1023.6mb 55f 64f
10:50am 0.3ft  -  4s 2 4 mph 1024mb 55f 62f
10:20am 0.3ft  -  4s 2 4 mph 1024.1mb 55f 61f
9:50am 0.3ft  -   -  4
mph
1024.1mb 53f 60f
9:20am 0.3ft  -  4s 2 4 mph 1024.1mb 53f 60f
8:50am 0.7ft  -  4s 4
mph
1024.1mb 53f 58f
8:20am 0.7ft  -  4s 4
mph
1024.1mb 53f 58f
7:50am 0.7ft  -  4s 2
mph
1024mb 53f 57f
7:20am 0.7ft  -  4s 2
mph
1023.8mb 53f 56f
6:50am 0.7ft  -  4s 2 4 mph 1023.6mb 53f 55f
6:20am 0.7ft  -  4s 2 4 mph 1023.4mb 53f 55f
5:50am 0.7ft  -  4s 4 7 mph 1023.2mb 52f 54f
5:20am 0.3ft  -  4s 9
mph
1023mb 52f 54f
4:50am 0.3ft  -  4s 9
mph
1022.9mb 52f 54f
4:20am 0.7ft  -  4s 7 9 mph 1022.7mb 52f 54f
3:50am 0.7ft  -  4s 4
mph
1022.5mb 52f 54f
3:20am 0.7ft  -  4s 2
mph
1022.4mb 52f 54f
2:50am 0.7ft  -  4s 4
mph
1022.2mb 53f 55f
1:50am 0.3ft  -  4s 2 4 mph 1022.1mb 53f 55f
1:20am 0.7ft  -  4s 4 7 mph 1021.9mb 53f 55f
12:50am 0.7ft  -  4s 4 7 mph 1021.8mb 53f 55f
12:20am 1ft 4s 4s 7
mph
1021.8mb 53f 55f
Tue 08/23 11:50pm 1ft 4s 3s 9 11 mph 1021.7mb 53f 56f
11:20pm 1ft 3s 3s 9 13 mph 1021.7mb 53f 56f